createdAt,value
2023-05-08T00:02:11.125Z,21.70
2023-05-08T00:04:46.765Z,24.45
2023-05-08T00:07:23.601Z,23.60
2023-05-08T00:09:53.166Z,24.20
2023-05-08T00:12:21.069Z,24.23
2023-05-08T00:14:55.116Z,23.27
2023-05-08T00:19:55.129Z,25.88
2023-05-08T00:22:40.066Z,26.23
2023-05-08T00:27:42.471Z,25.55
2023-05-08T00:30:34.237Z,28.23
2023-05-08T00:33:06.232Z,26.77
2023-05-08T00:35:36.935Z,29.40
2023-05-08T00:38:11.480Z,29.98
2023-05-08T00:40:43.456Z,31.98
2023-05-08T00:43:26.119Z,37.13
2023-05-08T00:46:11.644Z,33.95
2023-05-08T00:51:18.675Z,31.20
2023-05-08T00:53:48.567Z,27.02
2023-05-08T00:56:17.046Z,29.25
2023-05-08T00:58:50.891Z,22.00
2023-05-08T01:01:22.849Z,19.42
2023-05-08T01:03:53.386Z,18.23
2023-05-08T01:06:27.646Z,18.58
2023-05-08T01:08:58.425Z,17.90
2023-05-08T01:11:42.210Z,20.17
2023-05-08T01:17:39.249Z,21.75
2023-05-08T01:20:17.208Z,23.33
2023-05-08T01:22:55.118Z,17.35
2023-05-08T01:25:57.253Z,16.95
2023-05-08T01:28:44.650Z,14.27
2023-05-08T01:31:25.788Z,13.02
2023-05-08T01:34:09.237Z,9.98
2023-05-08T01:36:58.077Z,10.23
2023-05-08T01:42:37.112Z,8.50
2023-05-08T01:45:43.736Z,8.55
2023-05-08T01:49:00.601Z,8.38
2023-05-08T01:51:38.352Z,8.10
2023-05-08T01:54:10.420Z,8.68
2023-05-08T01:57:00.684Z,9.15
2023-05-08T01:59:31.069Z,9.32
2023-05-08T02:04:57.264Z,12.00
2023-05-08T02:07:44.336Z,12.35
2023-05-08T02:10:16.866Z,11.75
2023-05-08T02:16:09.836Z,11.23
2023-05-08T02:18:46.778Z,14.90
2023-05-08T02:21:23.616Z,11.70
2023-05-08T02:24:10.519Z,11.35
2023-05-08T02:26:39.562Z,10.68
2023-05-08T02:29:07.836Z,10.27
2023-05-08T02:31:41.746Z,9.68
2023-05-08T02:34:11.064Z,9.85
2023-05-08T02:36:43.846Z,10.18
2023-05-08T02:39:14.214Z,11.32
2023-05-08T02:44:40.737Z,11.57
2023-05-08T02:47:22.357Z,12.05
2023-05-08T02:49:57.062Z,10.90
2023-05-08T02:55:59.174Z,32.22
2023-05-08T02:58:53.176Z,11.45
2023-05-08T03:01:37.472Z,10.15
2023-05-08T03:07:38.398Z,10.87
2023-05-08T03:10:10.675Z,11.02
2023-05-08T03:12:42.580Z,9.68
2023-05-08T03:15:26.932Z,9.43
2023-05-08T03:21:11.481Z,9.68
2023-05-08T03:24:01.623Z,9.23
2023-05-08T03:26:52.922Z,8.48
2023-05-08T03:29:40.982Z,9.32
2023-05-08T03:32:31.183Z,8.82
2023-05-08T03:35:17.322Z,9.15
2023-05-08T03:38:30.532Z,8.82
2023-05-08T03:41:17.202Z,13.88
2023-05-08T03:46:51.284Z,10.32
2023-05-08T03:49:26.290Z,15.75
2023-05-08T03:52:21.093Z,10.07
2023-05-08T03:55:18.319Z,16.48
2023-05-08T03:58:25.167Z,26.58
2023-05-08T04:01:06.139Z,11.30
2023-05-08T04:04:23.636Z,12.48
2023-05-08T04:07:17.273Z,11.52
2023-05-08T04:10:08.643Z,14.80
2023-05-08T04:12:42.164Z,15.77
2023-05-08T04:15:20.704Z,13.60
2023-05-08T04:17:56.354Z,16.08
2023-05-08T04:20:32.254Z,13.27
2023-05-08T04:23:21.111Z,16.77
2023-05-08T04:25:57.633Z,18.85
2023-05-08T04:28:33.441Z,16.95
2023-05-08T04:31:04.686Z,33.85
2023-05-08T04:33:39.568Z,16.23
2023-05-08T04:36:13.197Z,14.60
2023-05-08T04:38:44.278Z,16.67
2023-05-08T04:41:15.394Z,13.88
2023-05-08T04:43:48.779Z,23.23
2023-05-08T04:46:16.721Z,19.55
2023-05-08T04:48:43.881Z,18.88
2023-05-08T04:51:16.440Z,22.42
2023-05-08T04:53:46.648Z,18.25
2023-05-08T04:56:22.216Z,17.38
2023-05-08T05:01:36.307Z,17.33
2023-05-08T05:04:07.561Z,17.55
2023-05-08T05:07:20.656Z,15.90
2023-05-08T05:09:56.572Z,14.75
2023-05-08T05:12:28.219Z,14.57
2023-05-08T05:14:55.626Z,12.63
2023-05-08T05:17:31.769Z,15.88
2023-05-08T05:20:00.036Z,13.25
2023-05-08T05:22:30.335Z,18.23
2023-05-08T05:25:00.145Z,12.68
2023-05-08T05:27:39.052Z,16.40
2023-05-08T05:30:23.596Z,13.90
2023-05-08T05:32:59.106Z,16.27
2023-05-08T05:35:31.000Z,12.32
2023-05-08T05:38:02.732Z,12.77
2023-05-08T05:40:43.092Z,12.38
2023-05-08T05:43:15.864Z,16.38
2023-05-08T05:45:45.852Z,11.63
2023-05-08T05:48:23.160Z,14.82
2023-05-08T05:50:52.961Z,11.68
2023-05-08T05:56:23.652Z,10.20
2023-05-08T06:01:39.414Z,9.52
2023-05-08T06:04:19.289Z,11.35
2023-05-08T06:09:32.187Z,8.07
2023-05-08T06:12:05.207Z,14.52
2023-05-08T06:17:46.298Z,15.23
2023-05-08T06:20:17.199Z,9.10
2023-05-08T06:22:46.946Z,12.88
2023-05-08T06:25:35.815Z,10.48
2023-05-08T06:28:08.274Z,9.90
2023-05-08T06:30:43.255Z,9.77
2023-05-08T06:33:15.973Z,9.77
2023-05-08T06:36:01.989Z,12.10
2023-05-08T06:38:29.543Z,9.32
2023-05-08T06:40:57.909Z,9.30
2023-05-08T06:43:46.236Z,9.45
2023-05-08T06:46:16.822Z,8.75
2023-05-08T06:49:01.136Z,9.02
2023-05-08T06:51:41.441Z,10.05
2023-05-08T06:54:46.286Z,9.98
2023-05-08T06:57:30.678Z,11.43
2023-05-08T07:00:03.555Z,8.75
2023-05-08T07:02:36.227Z,10.38
2023-05-08T07:05:49.075Z,9.43
2023-05-08T07:08:24.884Z,9.57
2023-05-08T07:11:22.187Z,10.60
2023-05-08T07:13:55.084Z,8.90
2023-05-08T07:16:24.977Z,9.63
2023-05-08T07:19:02.260Z,9.27
2023-05-08T07:21:33.045Z,9.88
2023-05-08T07:24:06.904Z,13.10
2023-05-08T07:26:42.363Z,11.07
2023-05-08T07:29:12.409Z,9.57
2023-05-08T07:31:55.123Z,9.90
2023-05-08T07:37:48.583Z,7.80
2023-05-08T07:41:04.170Z,11.00
2023-05-08T07:43:36.974Z,8.18
2023-05-08T07:46:19.292Z,7.55
2023-05-08T07:48:51.480Z,7.32
2023-05-08T07:51:30.279Z,9.93
2023-05-08T07:53:57.614Z,6.22
2023-05-08T07:56:27.988Z,7.53
2023-05-08T07:59:00.588Z,7.35
2023-05-08T08:01:33.263Z,7.20
2023-05-08T08:07:33.350Z,5.68
2023-05-08T08:10:27.058Z,5.50
2023-05-08T08:13:03.389Z,6.05
2023-05-08T08:15:37.231Z,34.85
2023-05-08T08:18:11.306Z,10.13
2023-05-08T08:20:44.628Z,11.82
2023-05-08T08:23:19.707Z,9.00
2023-05-08T08:25:59.581Z,5.15
2023-05-08T08:28:40.429Z,6.28
2023-05-08T08:49:04.208Z,9.38
2023-05-08T08:57:19.568Z,8.10
2023-05-08T09:23:31.940Z,10.60
2023-05-08T09:26:22.646Z,8.80
2023-05-08T09:33:13.394Z,10.35
2023-05-08T09:42:48.595Z,7.15
2023-05-08T09:45:35.470Z,12.70
2023-05-08T09:48:21.230Z,14.25
2023-05-08T09:51:08.096Z,8.43
2023-05-08T09:53:49.737Z,9.00
2023-05-08T10:00:46.185Z,9.18
2023-05-08T10:03:26.729Z,11.18
2023-05-08T10:06:14.851Z,12.68
2023-05-08T10:16:59.998Z,12.70
2023-05-08T10:19:44.432Z,16.40
2023-05-08T10:22:25.710Z,10.00
2023-05-08T10:28:41.161Z,8.50
2023-05-08T10:31:20.594Z,8.93
2023-05-08T10:34:20.662Z,9.85
2023-05-08T10:36:54.767Z,10.48
2023-05-08T10:39:26.110Z,10.60
2023-05-08T10:42:07.579Z,12.15
2023-05-08T10:44:41.364Z,9.48
2023-05-08T10:47:25.175Z,7.93
2023-05-08T10:50:13.833Z,8.30
2023-05-08T10:52:48.366Z,6.35
2023-05-08T10:55:35.090Z,5.60
2023-05-08T10:58:06.598Z,4.72
2023-05-08T11:00:59.337Z,4.32
2023-05-08T11:03:51.561Z,6.13
2023-05-08T11:06:45.231Z,10.02
2023-05-08T11:09:27.932Z,5.43
2023-05-08T11:12:19.965Z,6.55
2023-05-08T11:15:03.306Z,8.68
2023-05-08T11:17:52.271Z,8.43
2023-05-08T11:21:41.411Z,4.93
2023-05-08T11:24:37.882Z,13.35
2023-05-08T11:27:11.246Z,9.88
2023-05-08T11:30:32.807Z,6.80
2023-05-08T11:33:06.644Z,5.38
2023-05-08T11:36:09.008Z,3.83
2023-05-08T11:39:13.153Z,6.30
2023-05-08T11:42:43.345Z,7.63
2023-05-08T11:48:28.972Z,2.97
2023-05-08T11:52:05.141Z,3.60
2023-05-08T11:54:41.299Z,10.65
2023-05-08T11:58:01.805Z,8.80
2023-05-08T12:04:31.153Z,3.22
2023-05-08T12:07:06.598Z,4.88
2023-05-08T12:09:57.327Z,6.07
2023-05-08T12:12:40.273Z,8.00
2023-05-08T12:15:23.486Z,4.72
2023-05-08T12:18:26.430Z,4.90
2023-05-08T12:21:11.852Z,5.18
2023-05-08T12:24:28.798Z,3.58
2023-05-08T12:26:59.714Z,6.25
2023-05-08T12:32:43.313Z,6.10
2023-05-08T12:35:19.269Z,6.55
2023-05-08T12:37:50.871Z,9.05
2023-05-08T12:40:54.164Z,6.47
2023-05-08T12:43:54.769Z,5.70
2023-05-08T12:49:51.391Z,5.47
2023-05-08T12:52:33.929Z,7.18
2023-05-08T12:58:29.764Z,6.50
2023-05-08T13:01:37.844Z,7.47
2023-05-08T13:04:27.719Z,7.97
2023-05-08T13:07:20.967Z,11.05
2023-05-08T13:10:10.475Z,5.93
2023-05-08T13:12:44.512Z,7.82
2023-05-08T13:15:19.221Z,5.32
2023-05-08T13:18:02.293Z,8.98
2023-05-08T13:20:38.256Z,8.68
2023-05-08T13:23:09.528Z,10.27
2023-05-08T13:25:47.728Z,5.90
2023-05-08T13:28:17.410Z,10.93
2023-05-08T13:44:13.709Z,2.45
2023-05-08T13:46:44.261Z,2.33
2023-05-08T13:49:16.724Z,6.38
2023-05-08T13:51:57.389Z,2.90
2023-05-08T13:54:53.301Z,2.50
2023-05-08T13:57:25.011Z,4.88
2023-05-08T14:00:09.315Z,3.03
2023-05-08T14:02:50.039Z,7.70
2023-05-08T14:05:47.790Z,2.67
2023-05-08T14:08:21.341Z,2.67
2023-05-08T14:10:50.462Z,2.65
2023-05-08T14:13:25.839Z,5.28
2023-05-08T14:16:04.783Z,2.83
2023-05-08T14:18:38.143Z,3.80
2023-05-08T14:21:16.338Z,3.78
2023-05-08T14:23:46.695Z,5.75
2023-05-08T14:29:12.620Z,4.22
2023-05-08T14:31:47.108Z,3.40
2023-05-08T14:34:27.990Z,5.40
2023-05-08T14:37:08.502Z,9.20
2023-05-08T14:42:35.418Z,5.13
2023-05-08T14:45:21.985Z,3.03
2023-05-08T14:47:59.261Z,2.78
2023-05-08T14:50:36.389Z,6.28
2023-05-08T14:53:08.603Z,4.80
2023-05-08T14:55:47.435Z,4.72
2023-05-08T14:58:43.845Z,7.80
2023-05-08T15:01:25.628Z,5.88
2023-05-08T15:07:35.837Z,18.73
2023-05-08T15:10:12.382Z,6.07
2023-05-08T15:13:00.856Z,9.45
2023-05-08T15:15:38.842Z,7.07
2023-05-08T15:18:29.723Z,6.65
2023-05-08T15:21:06.302Z,6.82
2023-05-08T15:23:44.037Z,6.90
2023-05-08T15:26:14.875Z,6.00
2023-05-08T15:28:51.287Z,8.80
2023-05-08T15:31:28.605Z,7.45
2023-05-08T15:34:08.195Z,6.03
2023-05-08T15:36:39.342Z,4.57
2023-05-08T15:39:12.079Z,7.40
2023-05-08T15:41:50.774Z,4.97
2023-05-08T15:44:55.177Z,23.15
2023-05-08T15:47:33.737Z,40.17
2023-05-08T15:50:12.909Z,5.05
2023-05-08T15:56:01.591Z,5.93
2023-05-08T15:58:48.860Z,7.53
2023-05-08T16:01:24.858Z,7.82
2023-05-08T16:03:58.582Z,5.90
2023-05-08T16:06:44.411Z,5.20
2023-05-08T16:09:21.828Z,16.05
2023-05-08T16:11:57.532Z,8.35
2023-05-08T16:14:49.675Z,13.45
2023-05-08T16:30:59.784Z,11.63
2023-05-08T16:36:37.342Z,10.00
2023-05-08T16:39:31.332Z,9.57
2023-05-08T16:45:04.734Z,8.85
2023-05-08T16:47:39.930Z,10.38
2023-05-08T16:50:18.644Z,12.77
2023-05-08T16:53:02.351Z,10.38
2023-05-08T16:58:40.044Z,9.10
2023-05-08T17:01:11.811Z,7.25
2023-05-08T17:04:01.612Z,12.70
2023-05-08T17:06:33.822Z,8.30
2023-05-08T17:09:21.727Z,14.52
2023-05-08T17:12:34.054Z,9.40
2023-05-08T17:15:11.258Z,14.45
2023-05-08T17:18:06.556Z,7.63
2023-05-08T17:20:43.548Z,8.48
2023-05-08T17:23:34.173Z,11.65
2023-05-08T17:26:09.580Z,4.57
2023-05-08T17:28:48.370Z,3.38
2023-05-08T17:31:16.196Z,5.82
2023-05-08T17:33:50.234Z,3.40
2023-05-08T17:36:18.850Z,8.60
2023-05-08T17:41:51.083Z,8.80
2023-05-08T17:44:47.600Z,5.13
2023-05-08T17:47:30.331Z,5.93
2023-05-08T17:50:13.016Z,7.22
2023-05-08T17:53:03.732Z,4.05
2023-05-08T17:55:44.988Z,26.00
2023-05-08T17:58:17.051Z,4.00
2023-05-08T18:01:05.421Z,6.45
2023-05-08T18:03:49.374Z,5.57
2023-05-08T18:09:33.494Z,5.85
2023-05-08T18:12:11.503Z,5.20
2023-05-08T18:14:42.578Z,4.73
2023-05-08T18:17:24.065Z,13.00
2023-05-08T18:19:58.709Z,5.18
2023-05-08T18:22:36.872Z,4.88
2023-05-08T18:25:22.545Z,5.85
2023-05-08T18:27:57.420Z,4.53
2023-05-08T18:54:18.836Z,7.15
2023-05-08T19:22:03.532Z,3.80
2023-05-08T19:28:24.432Z,7.38
2023-05-08T19:31:00.639Z,3.65
2023-05-08T19:33:31.796Z,5.28
2023-05-08T19:36:15.383Z,4.82
2023-05-08T19:39:43.103Z,8.30
2023-05-08T19:46:45.103Z,8.52
2023-05-08T19:49:39.389Z,8.82
2023-05-08T19:52:07.113Z,6.60
2023-05-08T19:54:54.376Z,5.80
2023-05-08T19:57:55.247Z,6.68
2023-05-08T20:01:20.215Z,11.43
2023-05-08T20:04:02.047Z,8.05
2023-05-08T20:07:23.399Z,7.82
2023-05-08T20:09:59.477Z,12.02
2023-05-08T20:12:31.105Z,8.52
2023-05-08T20:15:03.921Z,10.95
2023-05-08T20:17:43.534Z,10.55
2023-05-08T20:20:16.745Z,10.50
2023-05-08T20:22:49.696Z,9.68
2023-05-08T20:25:29.658Z,11.23
2023-05-08T20:27:59.942Z,10.65
2023-05-08T20:30:29.408Z,13.43
2023-05-08T20:33:05.156Z,10.88
2023-05-08T20:35:36.126Z,11.45
2023-05-08T20:38:39.951Z,15.93
2023-05-08T20:41:10.318Z,13.20
2023-05-08T20:43:40.493Z,18.58
2023-05-08T20:48:53.008Z,13.25
2023-05-08T20:51:20.401Z,14.65
2023-05-08T20:53:53.536Z,13.35
2023-05-08T20:56:25.887Z,16.58
2023-05-08T20:58:55.869Z,16.52
2023-05-08T21:01:27.412Z,16.10
2023-05-08T21:03:56.906Z,15.23
2023-05-08T21:06:29.864Z,15.05
2023-05-08T21:09:06.969Z,16.15
2023-05-08T21:11:37.346Z,16.92
2023-05-08T21:14:11.414Z,14.85
2023-05-08T21:16:43.316Z,15.38
2023-05-08T21:19:21.605Z,15.82
2023-05-08T21:21:53.800Z,15.15
2023-05-08T21:24:30.471Z,15.07
2023-05-08T21:27:06.663Z,15.27
2023-05-08T21:29:35.006Z,16.45
2023-05-08T21:32:18.786Z,13.57
2023-05-08T21:34:54.487Z,15.02
2023-05-08T21:37:28.603Z,14.75
2023-05-08T21:39:58.582Z,15.52
2023-05-08T21:42:29.488Z,21.20
2023-05-08T21:45:09.625Z,16.27
2023-05-08T21:47:47.814Z,16.23
2023-05-08T21:50:19.584Z,16.20
2023-05-08T21:52:57.820Z,17.77
2023-05-08T21:55:36.798Z,20.85
2023-05-08T21:58:14.482Z,17.77
2023-05-08T22:00:53.006Z,19.77
2023-05-08T22:06:03.204Z,18.80
2023-05-08T22:08:33.919Z,18.00
2023-05-08T22:11:09.810Z,18.23
2023-05-08T22:13:45.125Z,22.13
2023-05-08T22:16:21.915Z,22.85
2023-05-08T22:18:52.068Z,23.25
2023-05-08T22:21:21.355Z,18.98
2023-05-08T22:23:59.156Z,17.80
2023-05-08T22:26:35.398Z,19.08
2023-05-08T22:29:11.326Z,22.30
2023-05-08T22:31:41.154Z,20.60
2023-05-08T22:34:15.013Z,20.35
2023-05-08T22:36:50.013Z,20.80
2023-05-08T22:39:27.366Z,21.63
2023-05-08T22:42:13.492Z,20.33
2023-05-08T22:44:44.091Z,24.52
2023-05-08T22:47:18.016Z,21.83
2023-05-08T22:49:45.247Z,21.77
2023-05-08T22:52:13.492Z,22.92
2023-05-08T22:54:44.216Z,22.92
2023-05-08T22:57:11.451Z,23.80
2023-05-08T22:59:49.620Z,23.15
2023-05-08T23:02:17.437Z,24.73
2023-05-08T23:04:50.486Z,24.13
2023-05-08T23:07:30.835Z,23.58
2023-05-08T23:10:02.771Z,24.10
2023-05-08T23:12:44.514Z,24.98
2023-05-08T23:15:17.284Z,25.98
2023-05-08T23:18:07.074Z,24.75
2023-05-08T23:20:39.280Z,25.48
2023-05-08T23:23:16.140Z,26.35
2023-05-08T23:26:05.241Z,26.85
2023-05-08T23:28:35.873Z,26.80
2023-05-08T23:31:10.177Z,29.17
2023-05-08T23:33:37.205Z,26.25
2023-05-08T23:36:15.141Z,27.75
2023-05-08T23:38:52.006Z,27.33
2023-05-08T23:41:27.474Z,27.40
2023-05-08T23:44:03.806Z,27.00
2023-05-08T23:46:44.626Z,27.63
2023-05-08T23:49:45.824Z,24.88
2023-05-08T23:52:32.366Z,24.27
2023-05-08T23:55:00.556Z,24.13
2023-05-08T23:57:35.868Z,22.17
